Weston-Spr-Mare, United Kingdom
Current Conditions -  °F | °C
As of 2:50 PM on Wednesday 22 Oct 2014 (Local Time) from EGGD Reporting Station
Light Rain Light Rain  
Wind Chill: 11°   Ceiling: 2500
Heat Index: 11°   Visibility: 5mi
Dew Point:   Wind: 14mph
Humidity: 88%   Direction: 260°W
Pressure: 30.27"   Gusts: NA
Location:  51.33°N, 2.98°W
Report Text: EGGD 221350Z 26012KT 8000 -RADZ FEW020 BKN025 11/09 Q1025
Loading
Personal Weather Stations






























Interactive Weather Map
Tropical Storm Tracking
New forecast layout! Learn more

10-Day Weather Forecast

Advertisements
Track Severe Weather on mobile